Time;durP1;ratioP1;P1;durP2;ratioP2;P2;SDS_P1;SDS_P2;PMS_P1;PMS_P2;Temp;Humidity;BMP_temperature;BMP_pressure;BME280_temperature;BME280_humidity;BME280_pressure;Samples;Min_cycle;Max_cycle;Signal;HPM_P1;HPM_P2
2023/01/10 00:00:20;;;;;;;9.67;7.47;;;7.40;99.90;;;;;;5032316;28;20180;-71
2023/01/10 00:02:46;;;;;;;8.10;6.13;;;7.40;99.90;;;;;;5025726;28;20433;-71
2023/01/10 00:05:11;;;;;;;7.03;6.33;;;7.40;99.90;;;;;;5032227;28;20899;-71
2023/01/10 00:07:37;;;;;;;6.97;5.07;;;7.40;99.90;;;;;;5032281;28;20187;-71
2023/01/10 00:10:02;;;;;;;5.00;4.00;;;7.40;99.90;;;;;;5029510;28;20256;-71
2023/01/10 00:15:12;;;;;;;3.07;2.47;;;7.30;99.90;;;;;;5029944;28;20191;-71
2023/01/10 00:17:39;;;;;;;6.50;3.80;;;7.30;99.90;;;;;;5032102;28;20459;-71
2023/01/10 00:20:05;;;;;;;3.83;3.30;;;7.30;99.90;;;;;;5030794;28;20178;-71
2023/01/10 00:22:30;;;;;;;5.57;4.80;;;7.30;99.90;;;;;;5031937;28;20512;-71
2023/01/10 00:24:56;;;;;;;3.47;3.17;;;7.30;99.90;;;;;;5032387;28;20905;-71
2023/01/10 00:27:21;;;;;;;4.93;3.83;;;7.30;99.90;;;;;;5031863;28;20180;-71
2023/01/10 00:29:51;;;;;;;6.63;4.23;;;7.30;99.90;;;;;;5031842;28;20179;-71
2023/01/10 00:32:17;;;;;;;4.67;3.80;;;7.30;99.90;;;;;;5031859;28;20292;-71
2023/01/10 00:34:42;;;;;;;3.40;2.30;;;7.30;99.90;;;;;;5032238;28;20490;-71
2023/01/10 00:37:08;;;;;;;5.83;2.43;;;7.30;99.90;;;;;;5032052;28;20419;-71
2023/01/10 00:39:33;;;;;;;4.13;2.50;;;7.20;99.90;;;;;;5031664;28;20609;-71
2023/01/10 00:44:45;;;;;;;4.03;3.30;;;7.20;99.90;;;;;;5031584;28;20203;-71
2023/01/10 00:47:12;;;;;;;3.37;2.80;;;7.20;99.90;;;;;;5032114;28;20766;-71
2023/01/10 00:49:38;;;;;;;2.87;2.23;;;7.30;99.90;;;;;;5030903;28;20422;-70
2023/01/10 00:52:04;;;;;;;4.80;3.10;;;7.20;99.90;;;;;;5031571;28;20430;-71
2023/01/10 00:54:29;;;;;;;4.07;2.60;;;7.30;99.90;;;;;;5031463;28;20485;-71
2023/01/10 00:56:55;;;;;;;4.50;3.70;;;7.30;99.90;;;;;;5031892;28;20418;-71
2023/01/10 00:59:21;;;;;;;2.50;2.00;;;7.20;99.90;;;;;;5034382;28;20209;-71
2023/01/10 01:01:47;;;;;;;3.73;2.60;;;7.20;99.90;;;;;;5031826;28;20488;-71
2023/01/10 01:04:13;;;;;;;8.30;3.10;;;7.20;99.90;;;;;;5031507;28;20423;-71
2023/01/10 01:06:39;;;;;;;2.83;2.53;;;7.20;99.90;;;;;;5031292;28;20414;-71
2023/01/10 01:09:04;;;;;;;2.87;2.60;;;7.20;99.90;;;;;;5031196;28;20221;-71
2023/01/10 01:11:30;;;;;;;3.43;2.70;;;7.20;99.90;;;;;;5031209;28;20350;-71
2023/01/10 01:13:55;;;;;;;2.30;2.10;;;7.10;99.90;;;;;;5031298;28;20626;-71
2023/01/10 01:16:21;;;;;;;3.63;2.77;;;7.10;99.90;;;;;;5030997;28;20205;-71
2023/01/10 01:18:47;;;;;;;3.83;2.60;;;7.20;99.90;;;;;;5029475;28;20291;-72
2023/01/10 01:21:13;;;;;;;2.73;2.50;;;7.20;99.90;;;;;;5031127;28;20424;-71
2023/01/10 01:23:38;;;;;;;3.33;2.40;;;7.10;99.90;;;;;;5030081;28;20195;-71
2023/01/10 01:26:05;;;;;;;2.87;2.13;;;7.10;99.90;;;;;;5030966;28;20175;-71
2023/01/10 01:28:31;;;;;;;3.07;2.30;;;7.00;99.90;;;;;;5030794;28;20176;-71
2023/01/10 01:30:56;;;;;;;3.90;2.63;;;7.00;99.90;;;;;;5031198;28;20472;-71
2023/01/10 01:33:23;;;;;;;2.70;2.50;;;6.90;99.90;;;;;;5030982;28;20508;-71
2023/01/10 01:35:49;;;;;;;5.77;2.93;;;6.90;99.90;;;;;;5031243;28;20263;-71
2023/01/10 01:38:16;;;;;;;2.90;2.70;;;6.90;99.90;;;;;;5027414;28;21088;-71
2023/01/10 01:40:42;;;;;;;8.20;2.30;;;6.80;99.90;;;;;;5029731;28;20517;-71
2023/01/10 01:43:28;;;;;;;3.73;2.20;;;6.80;99.90;;;;;;5030767;28;20526;-71
2023/01/10 01:45:56;;;;;;;3.27;2.87;;;6.70;99.90;;;;;;5025628;28;20421;-71
2023/01/10 01:48:34;;;;;;;4.00;3.20;;;6.60;99.90;;;;;;5030762;28;20509;-71
2023/01/10 01:51:08;;;;;;;4.83;3.00;;;6.70;99.90;;;;;;5030768;28;20418;-71
2023/01/10 01:53:38;;;;;;;3.37;2.97;;;6.70;99.90;;;;;;5030658;28;20437;-71
2023/01/10 01:56:32;;;;;;;4.20;3.10;;;6.70;99.90;;;;;;5030620;28;20411;-71
2023/01/10 01:59:06;;;;;;;3.40;2.77;;;6.70;99.90;;;;;;4994500;28;20988;-71
2023/01/10 02:01:32;;;;;;;3.83;2.90;;;6.70;99.90;;;;;;5028868;28;20525;-71
2023/01/10 02:04:11;;;;;;;3.20;2.90;;;6.70;99.90;;;;;;5030586;28;20418;-71
2023/01/10 02:06:36;;;;;;;3.30;2.70;;;6.60;99.90;;;;;;5030013;28;20560;-71
2023/01/10 02:09:11;;;;;;;7.30;3.50;;;6.60;99.90;;;;;;5029749;28;20404;-71
2023/01/10 02:11:37;;;;;;;2.13;1.93;;;6.50;99.90;;;;;;5030582;28;20421;-71
2023/01/10 02:14:05;;;;;;;8.40;2.80;;;6.50;99.90;;;;;;5030544;28;20493;-72
2023/01/10 02:16:31;;;;;;;7.53;3.50;;;6.40;99.90;;;;;;5029448;28;20176;-71
2023/01/10 02:18:57;;;;;;;4.93;3.80;;;6.30;99.90;;;;;;5030235;28;20992;-71
2023/01/10 02:22:02;;;;;;;6.17;3.40;;;6.30;99.90;;;;;;5030163;28;20172;-70
2023/01/10 02:24:43;;;;;;;5.50;3.57;;;6.30;99.90;;;;;;5013628;28;20428;-71
2023/01/10 02:27:14;;;;;;;5.63;3.40;;;6.20;99.90;;;;;;5030706;28;20437;-71
2023/01/10 02:30:21;;;;;;;5.20;3.67;;;6.10;99.90;;;;;;5030412;28;20449;-70
2023/01/10 02:33:19;;;;;;;5.17;3.60;;;6.00;99.90;;;;;;5014572;28;21015;-71
2023/01/10 02:36:02;;;;;;;7.27;3.37;;;6.00;99.90;;;;;;5031690;28;20413;-70
2023/01/10 02:38:37;;;;;;;10.10;5.03;;;5.90;99.90;;;;;;5034687;28;21025;-70
2023/01/10 02:41:14;;;;;;;6.60;4.70;;;5.90;99.90;;;;;;5034014;28;20413;-71
2023/01/10 02:43:52;;;;;;;5.17;3.00;;;5.90;99.90;;;;;;5033911;28;21135;-71
2023/01/10 02:46:24;;;;;;;5.23;3.17;;;5.90;99.90;;;;;;5033452;28;20448;-71
2023/01/10 02:48:52;;;;;;;5.53;4.00;;;5.90;99.90;;;;;;5026078;28;20406;-71
2023/01/10 02:51:26;;;;;;;4.80;3.37;;;5.80;99.90;;;;;;5033565;28;20450;-70
2023/01/10 02:54:01;;;;;;;6.07;3.90;;;5.80;99.90;;;;;;5029596;28;20480;-71
2023/01/10 02:56:29;;;;;;;5.13;3.47;;;5.70;99.90;;;;;;5033813;28;20413;-71
2023/01/10 02:59:18;;;;;;;4.93;3.47;;;5.80;99.90;;;;;;5067013;23;20467;-67
2023/01/10 03:02:10;;;;;;;6.00;2.87;;;5.90;99.90;;;;;;5033599;28;20420;-67
2023/01/10 03:04:36;;;;;;;5.13;3.23;;;6.00;99.90;;;;;;5033616;28;20413;-67
2023/01/10 03:07:07;;;;;;;5.70;3.10;;;6.10;99.90;;;;;;5033562;28;20399;-67
2023/01/10 03:09:42;;;;;;;11.73;4.50;;;6.10;99.90;;;;;;5029172;28;20192;-67
2023/01/10 03:12:18;;;;;;;7.73;5.03;;;6.00;99.90;;;;;;5025986;28;20437;-68
2023/01/10 03:14:45;;;;;;;9.10;5.70;;;6.00;99.90;;;;;;5025138;28;20394;-67
2023/01/10 03:17:12;;;;;;;5.93;4.30;;;6.00;99.90;;;;;;5025722;28;20950;-67
2023/01/10 03:19:53;;;;;;;8.30;3.40;;;5.90;99.90;;;;;;5023578;28;20438;-67
2023/01/10 03:22:19;;;;;;;8.50;4.60;;;6.00;99.90;;;;;;5026505;28;20418;-67
2023/01/10 03:24:48;;;;;;;5.57;3.70;;;6.00;99.90;;;;;;5023647;28;20516;-68
2023/01/10 03:27:23;;;;;;;4.80;4.00;;;6.00;99.90;;;;;;5025507;28;20397;-67
2023/01/10 03:29:59;;;;;;;7.87;4.97;;;6.10;99.90;;;;;;5023887;28;20481;-67
2023/01/10 03:32:27;;;;;;;8.07;4.27;;;6.20;99.90;;;;;;5024876;28;20409;-67
2023/01/10 03:34:54;;;;;;;4.90;3.60;;;6.20;99.90;;;;;;5021852;28;20408;-67
2023/01/10 03:37:24;;;;;;;4.33;2.80;;;6.20;99.90;;;;;;5028592;28;20773;-67
2023/01/10 03:39:57;;;;;;;4.80;4.30;;;6.30;99.90;;;;;;5018432;28;20435;-67
2023/01/10 03:44:42;;;;;;;6.33;3.77;;;6.30;99.90;;;;;;5029419;28;20406;-67
2023/01/10 03:45:27;;;;;;;4.27;3.60;;;6.40;99.90;;;;;;5021545;28;20781;-67
2023/01/10 03:47:54;;;;;;;4.40;3.70;;;6.40;99.90;;;;;;5024611;28;20403;-67
2023/01/10 03:50:23;;;;;;;8.60;4.20;;;6.40;99.90;;;;;;5022761;28;20450;-67
2023/01/10 03:52:49;;;;;;;4.70;3.40;;;6.40;99.90;;;;;;5025508;28;20427;-68
2023/01/10 03:55:23;;;;;;;8.50;4.10;;;6.50;99.90;;;;;;5024146;28;20407;-68
2023/01/10 03:57:48;;;;;;;9.20;3.53;;;6.50;99.90;;;;;;5011591;28;20274;-66
2023/01/10 04:00:15;;;;;;;4.60;4.20;;;6.50;99.90;;;;;;5024978;28;20455;-67
2023/01/10 04:02:41;;;;;;;5.20;3.77;;;6.50;99.90;;;;;;5024184;28;20605;-67
2023/01/10 04:05:07;;;;;;;11.17;4.83;;;6.60;99.90;;;;;;5024116;28;20445;-67
2023/01/10 04:07:33;;;;;;;9.13;4.67;;;6.60;99.90;;;;;;5022954;28;20403;-68
2023/01/10 04:09:59;;;;;;;12.07;4.80;;;6.60;99.90;;;;;;5024501;28;20481;-68
2023/01/10 04:12:25;;;;;;;7.17;5.87;;;6.60;99.90;;;;;;5024234;28;20489;-67
2023/01/10 04:14:51;;;;;;;4.80;3.80;;;6.60;99.90;;;;;;5025313;28;20943;-68
2023/01/10 04:17:17;;;;;;;8.53;4.53;;;6.60;99.90;;;;;;5023438;28;20422;-68
2023/01/10 04:19:43;;;;;;;5.53;3.40;;;6.60;99.90;;;;;;5024330;28;20559;-67
2023/01/10 04:22:10;;;;;;;7.43;3.73;;;6.60;99.90;;;;;;5024553;28;20399;-67
2023/01/10 04:24:35;;;;;;;8.27;5.30;;;6.60;99.90;;;;;;5022117;28;20465;-67
2023/01/10 04:27:02;;;;;;;5.27;4.73;;;6.60;99.90;;;;;;5024348;28;20758;-67
2023/01/10 04:29:28;;;;;;;8.73;4.00;;;6.60;99.90;;;;;;5023656;28;20427;-68
2023/01/10 04:31:54;;;;;;;6.47;4.17;;;6.70;99.90;;;;;;5024370;28;20433;-67
2023/01/10 04:34:20;;;;;;;10.10;4.43;;;6.60;99.90;;;;;;5022137;28;20180;-67
2023/01/10 04:36:46;;;;;;;5.83;4.17;;;6.60;99.90;;;;;;5011689;28;20197;-67
2023/01/10 04:39:12;;;;;;;6.33;5.03;;;6.60;99.90;;;;;;5023566;28;20565;-67
2023/01/10 04:41:37;;;;;;;6.93;4.67;;;6.60;99.90;;;;;;5022996;28;20451;-67
2023/01/10 04:44:04;;;;;;;9.63;4.03;;;6.60;99.90;;;;;;5023964;28;20646;-68
2023/01/10 04:46:30;;;;;;;10.13;6.37;;;6.60;99.90;;;;;;5023600;28;20175;-68
2023/01/10 04:48:57;;;;;;;9.03;5.50;;;6.50;99.90;;;;;;5022820;28;20521;-68
2023/01/10 04:51:23;;;;;;;8.13;5.70;;;6.60;99.90;;;;;;5021959;28;20178;-68
2023/01/10 04:53:49;;;;;;;4.77;4.27;;;6.50;99.90;;;;;;5024620;28;20906;-67
2023/01/10 04:56:17;;;;;;;9.60;4.80;;;6.50;99.90;;;;;;5023825;28;20419;-67
2023/01/10 04:58:43;;;;;;;6.03;4.43;;;6.50;99.90;;;;;;5023799;28;20688;-68
2023/01/10 05:01:15;;;;;;;7.37;4.77;;;6.50;99.90;;;;;;5033405;28;20415;-68
2023/01/10 05:03:40;;;;;;;7.23;4.70;;;6.50;99.90;;;;;;5024153;28;20535;-68
2023/01/10 05:06:06;;;;;;;7.80;4.67;;;6.50;99.90;;;;;;5023828;28;20410;-68
2023/01/10 05:08:33;;;;;;;6.00;5.17;;;6.60;99.90;;;;;;5022052;28;20179;-68
2023/01/10 05:10:58;;;;;;;10.90;5.20;;;6.60;99.90;;;;;;5025087;28;20410;-67
2023/01/10 05:13:25;;;;;;;7.70;5.90;;;6.60;99.90;;;;;;5023264;28;20476;-67
2023/01/10 05:15:55;;;;;;;14.23;5.00;;;6.60;99.90;;;;;;5020249;28;20608;-68
2023/01/10 05:18:21;;;;;;;22.93;5.03;;;6.70;99.90;;;;;;5027164;28;20544;-67
2023/01/10 05:20:46;;;;;;;9.10;4.70;;;6.60;99.90;;;;;;5020325;28;20525;-68
2023/01/10 05:23:12;;;;;;;6.53;4.50;;;6.70;99.90;;;;;;5025256;28;20430;-68
2023/01/10 05:25:38;;;;;;;9.03;4.80;;;6.70;99.90;;;;;;5021346;28;20250;-67
2023/01/10 05:28:03;;;;;;;10.40;5.40;;;6.70;99.90;;;;;;5025666;28;20168;-68
2023/01/10 05:30:29;;;;;;;9.17;4.97;;;6.70;99.90;;;;;;5022340;28;20199;-68
2023/01/10 05:32:55;;;;;;;10.20;5.33;;;6.80;99.90;;;;;;5019864;28;20172;-67
2023/01/10 05:35:20;;;;;;;10.50;5.50;;;6.80;99.90;;;;;;5025879;28;20629;-68
2023/01/10 05:37:46;;;;;;;7.47;5.20;;;6.80;99.90;;;;;;5020219;28;20705;-68
2023/01/10 05:40:11;;;;;;;12.43;5.43;;;6.80;99.90;;;;;;5025540;28;20191;-68
2023/01/10 05:42:37;;;;;;;14.17;4.87;;;6.80;99.90;;;;;;5020651;28;20178;-68
2023/01/10 05:45:04;;;;;;;10.53;6.10;;;6.80;99.90;;;;;;5025347;28;20164;-67
2023/01/10 05:47:29;;;;;;;12.83;5.27;;;6.80;99.90;;;;;;5022577;28;20180;-67
2023/01/10 05:49:55;;;;;;;6.30;4.97;;;6.70;99.90;;;;;;5019628;28;20955;-68
2023/01/10 05:52:20;;;;;;;16.17;5.47;;;6.80;99.90;;;;;;5026145;28;20180;-68
2023/01/10 05:54:46;;;;;;;9.50;5.40;;;6.80;99.90;;;;;;5019908;28;20196;-68
2023/01/10 05:57:12;;;;;;;13.07;6.60;;;6.80;99.90;;;;;;5025549;28;20186;-68
2023/01/10 05:59:37;;;;;;;10.27;5.93;;;6.90;99.90;;;;;;5020423;28;20231;-67
2023/01/10 06:02:03;;;;;;;6.83;4.73;;;6.90;99.90;;;;;;5025670;28;20597;-68
2023/01/10 06:04:28;;;;;;;13.37;5.80;;;6.80;99.90;;;;;;5021959;28;20176;-68
2023/01/10 06:06:54;;;;;;;10.20;5.40;;;6.90;99.90;;;;;;5019432;28;20629;-68
2023/01/10 06:09:19;;;;;;;8.00;6.03;;;6.80;99.90;;;;;;5019505;28;20203;-68
2023/01/10 06:11:45;;;;;;;8.73;5.87;;;6.80;99.90;;;;;;5030383;28;20185;-68
2023/01/10 06:14:10;;;;;;;9.70;5.13;;;6.80;99.90;;;;;;5023361;28;20566;-68
2023/01/10 06:16:36;;;;;;;8.30;4.47;;;6.80;99.90;;;;;;5025628;28;20171;-67
2023/01/10 06:19:02;;;;;;;9.93;5.20;;;6.80;99.90;;;;;;5027045;28;20662;-68
2023/01/10 06:21:27;;;;;;;12.23;5.00;;;6.80;99.90;;;;;;5024609;28;20210;-68
2023/01/10 06:23:53;;;;;;;8.20;5.23;;;6.80;99.90;;;;;;5029121;28;20698;-67
2023/01/10 06:26:18;;;;;;;17.90;5.53;;;6.80;99.90;;;;;;5023383;28;20161;-67
2023/01/10 06:28:44;;;;;;;8.77;4.93;;;6.80;99.90;;;;;;5030933;28;20215;-67
2023/01/10 06:31:10;;;;;;;7.70;5.17;;;6.80;99.90;;;;;;5023528;28;20176;-67
2023/01/10 06:33:37;;;;;;;13.87;6.00;;;6.80;99.90;;;;;;5025472;28;20172;-67
2023/01/10 06:36:03;;;;;;;10.93;4.80;;;6.70;99.90;;;;;;5022471;28;20626;-67
2023/01/10 06:38:29;;;;;;;8.40;5.10;;;6.70;99.90;;;;;;5024319;28;20466;-68
2023/01/10 06:40:55;;;;;;;8.90;5.73;;;6.60;99.90;;;;;;5028536;28;20412;-68
2023/01/10 06:43:20;;;;;;;6.93;5.37;;;6.60;99.90;;;;;;5023349;28;20596;-68
2023/01/10 06:45:46;;;;;;;9.97;5.30;;;6.60;99.90;;;;;;5030826;28;20176;-68
2023/01/10 06:48:11;;;;;;;12.80;5.83;;;6.60;99.90;;;;;;5022739;28;20173;-68
2023/01/10 06:50:37;;;;;;;12.87;5.60;;;6.70;99.90;;;;;;5025057;28;20196;-68
2023/01/10 06:53:03;;;;;;;11.90;6.30;;;6.80;99.90;;;;;;5026493;28;20200;-68
2023/01/10 06:55:30;;;;;;;15.73;6.43;;;6.80;99.90;;;;;;5024316;28;20172;-68
2023/01/10 06:58:03;;;;;;;9.30;5.60;;;6.80;99.90;;;;;;5028442;28;20534;-67
2023/01/10 07:00:30;;;;;;;12.97;6.77;;;6.80;99.90;;;;;;5023815;28;20538;-67
2023/01/10 07:03:00;;;;;;;12.40;7.33;;;6.90;99.90;;;;;;5029059;28;20792;-67
2023/01/10 07:05:26;;;;;;;11.47;5.80;;;6.90;99.90;;;;;;5023239;28;20805;-67
2023/01/10 07:07:52;;;;;;;15.17;6.33;;;6.90;99.90;;;;;;5025893;28;20398;-67
2023/01/10 07:10:17;;;;;;;10.73;6.27;;;6.90;99.90;;;;;;5025474;28;20960;-68
2023/01/10 07:12:43;;;;;;;13.73;6.97;;;6.80;99.90;;;;;;5025698;28;20638;-68
2023/01/10 07:15:09;;;;;;;10.07;6.47;;;6.80;99.90;;;;;;5025581;28;20164;-68
2023/01/10 07:17:35;;;;;;;11.37;6.80;;;6.90;99.90;;;;;;5023428;28;20204;-68
2023/01/10 07:20:00;;;;;;;11.60;7.70;;;6.90;99.90;;;;;;5025612;28;20434;-68
2023/01/10 07:22:26;;;;;;;15.37;7.23;;;6.90;99.90;;;;;;5023101;28;20177;-68
2023/01/10 07:24:53;;;;;;;11.70;6.93;;;6.90;99.90;;;;;;5025627;28;20681;-68
2023/01/10 07:27:19;;;;;;;8.63;6.00;;;6.90;99.90;;;;;;5023838;28;20518;-68
2023/01/10 07:29:44;;;;;;;11.40;5.70;;;6.80;99.90;;;;;;5025303;28;20476;-65
2023/01/10 07:32:10;;;;;;;8.73;6.00;;;6.80;99.90;;;;;;5024281;28;20194;-67
2023/01/10 07:34:35;;;;;;;11.07;6.40;;;6.80;99.90;;;;;;5023232;28;20525;-67
2023/01/10 07:37:01;;;;;;;12.43;7.07;;;6.80;99.90;;;;;;5025599;28;20176;-67
2023/01/10 07:39:27;;;;;;;14.03;8.00;;;6.80;99.90;;;;;;5026374;28;20719;-67
2023/01/10 07:41:53;;;;;;;22.23;8.10;;;6.80;99.90;;;;;;5027154;28;20527;-68
2023/01/10 07:44:18;;;;;;;13.30;5.77;;;6.80;99.90;;;;;;5025898;28;20258;-68
2023/01/10 07:46:44;;;;;;;13.67;6.37;;;6.80;99.90;;;;;;5025753;28;20454;-68
2023/01/10 07:49:10;;;;;;;8.93;5.97;;;6.80;99.90;;;;;;5025649;28;20203;-68
2023/01/10 07:51:35;;;;;;;13.73;7.57;;;6.80;99.90;;;;;;5023748;28;20565;-68
2023/01/10 07:54:02;;;;;;;15.97;6.50;;;6.80;99.90;;;;;;5025071;28;20172;-67
2023/01/10 07:56:27;;;;;;;9.83;5.83;;;6.80;99.90;;;;;;5023371;28;20269;-68
2023/01/10 07:58:53;;;;;;;10.80;7.33;;;6.80;99.90;;;;;;5024486;28;20486;-68
2023/01/10 08:01:20;;;;;;;15.30;8.00;;;6.90;99.90;;;;;;5024602;28;20187;-66
2023/01/10 08:03:45;;;;;;;11.63;6.60;;;7.00;99.90;;;;;;5014069;28;20171;-67
2023/01/10 08:06:11;;;;;;;8.00;6.10;;;6.90;99.90;;;;;;5024632;28;20411;-67
2023/01/10 08:08:37;;;;;;;16.33;7.20;;;6.90;99.90;;;;;;5021959;28;20295;-67
2023/01/10 08:11:04;;;;;;;11.80;5.63;;;6.90;99.90;;;;;;5026797;28;20202;-67
2023/01/10 08:13:30;;;;;;;14.07;6.70;;;6.90;99.90;;;;;;5023064;28;20923;-67
2023/01/10 08:15:57;;;;;;;12.37;6.67;;;7.00;99.90;;;;;;5021053;28;20404;-67
2023/01/10 08:18:23;;;;;;;10.90;6.83;;;7.00;99.90;;;;;;5027158;28;20456;-67
2023/01/10 08:20:51;;;;;;;16.20;8.63;;;7.00;99.90;;;;;;5021010;28;20530;-67
2023/01/10 08:23:18;;;;;;;9.53;6.47;;;7.00;99.90;;;;;;5027731;28;20439;-67
2023/01/10 08:25:44;;;;;;;12.30;7.83;;;7.10;99.90;;;;;;5020992;28;20849;-67
2023/01/10 08:28:09;;;;;;;12.00;7.60;;;7.20;99.90;;;;;;5027082;28;20438;-68
2023/01/10 08:30:35;;;;;;;15.13;7.00;;;7.20;99.90;;;;;;5022091;28;20458;-67
2023/01/10 08:33:02;;;;;;;14.43;7.13;;;7.10;99.90;;;;;;5020329;28;20240;-67
2023/01/10 08:35:28;;;;;;;9.43;6.40;;;7.20;99.90;;;;;;5027198;28;20501;-68
2023/01/10 08:37:57;;;;;;;9.83;6.43;;;7.20;99.90;;;;;;5020737;28;20556;-67
2023/01/10 08:40:23;;;;;;;10.93;5.50;;;7.30;99.90;;;;;;5027445;28;20197;-67
2023/01/10 08:42:58;;;;;;;8.73;6.23;;;7.20;99.90;;;;;;5020629;28;20409;-67
2023/01/10 08:45:24;;;;;;;10.60;6.13;;;7.20;99.90;;;;;;5028361;28;20173;-68
2023/01/10 08:47:50;;;;;;;15.23;7.13;;;7.10;99.90;;;;;;5020673;28;20409;-69
2023/01/10 08:50:15;;;;;;;15.97;5.80;;;7.10;99.90;;;;;;5020773;28;20682;-66
2023/01/10 08:52:41;;;;;;;9.70;6.77;;;7.10;99.90;;;;;;5026738;28;20245;-66
2023/01/10 08:55:07;;;;;;;9.03;6.00;;;7.30;99.90;;;;;;5020480;28;20260;-67
2023/01/10 08:57:32;;;;;;;12.03;6.40;;;7.20;99.90;;;;;;5026552;28;20186;-66
2023/01/10 09:02:26;;;;;;;7.37;5.70;;;7.50;99.90;;;;;;4964283;28;20570;-71
2023/01/10 09:04:51;;;;;;;9.30;6.80;;;7.60;99.90;;;;;;4968058;28;20429;-64
2023/01/10 09:07:17;;;;;;;10.97;6.30;;;7.60;99.90;;;;;;4966904;28;20270;-70
2023/01/10 09:09:43;;;;;;;13.90;6.43;;;7.60;99.90;;;;;;4968916;28;20182;-71
2023/01/10 09:14:53;;;;;;;8.40;6.30;;;7.70;99.90;;;;;;4976282;28;20773;-70
2023/01/10 09:17:18;;;;;;;10.03;5.90;;;7.70;99.90;;;;;;4972655;28;20500;-71
2023/01/10 09:19:44;;;;;;;12.20;7.03;;;7.60;99.90;;;;;;4972349;28;20474;-70
2023/01/10 09:22:10;;;;;;;10.10;6.33;;;7.50;99.90;;;;;;4973083;28;20238;-69
2023/01/10 09:24:37;;;;;;;9.13;5.93;;;7.60;99.90;;;;;;4971225;28;20581;-69
2023/01/10 09:27:02;;;;;;;12.93;6.43;;;7.60;99.90;;;;;;4968427;28;20480;-69
2023/01/10 09:29:28;;;;;;;10.60;5.20;;;7.70;99.90;;;;;;4971232;28;20572;-70
2023/01/10 09:31:53;;;;;;;8.50;5.10;;;7.70;99.90;;;;;;4971679;28;20193;-70
2023/01/10 09:34:20;;;;;;;16.27;5.83;;;7.60;99.90;;;;;;4971251;28;20182;-70
2023/01/10 09:36:46;;;;;;;9.10;5.83;;;7.60;99.90;;;;;;4971289;28;20197;-71
2023/01/10 09:39:12;;;;;;;12.73;5.97;;;7.60;99.90;;;;;;4971211;28;20903;-71
2023/01/10 09:42:01;;;;;;;14.20;5.73;;;7.60;99.90;;;;;;4970610;28;20963;-71
2023/01/10 09:44:44;;;;;;;8.00;5.50;;;7.50;99.90;;;;;;4955545;28;20214;-71
2023/01/10 09:47:25;;;;;;;10.73;5.37;;;7.60;99.90;;;;;;4966268;28;20455;-70
2023/01/10 09:49:54;;;;;;;5.73;5.13;;;7.60;99.90;;;;;;4966989;28;20421;-70
2023/01/10 09:52:33;;;;;;;8.00;5.43;;;7.60;99.90;;;;;;4970993;28;20952;-70
2023/01/10 09:55:24;;;;;;;8.30;5.43;;;7.70;99.90;;;;;;4971005;28;20455;-70
2023/01/10 09:57:53;;;;;;;11.90;6.80;;;7.80;99.90;;;;;;4964086;28;20463;-70
2023/01/10 10:00:23;;;;;;;7.00;5.40;;;7.90;99.90;;;;;;4970677;28;20488;-70
2023/01/10 10:02:52;;;;;;;9.63;6.27;;;7.70;99.90;;;;;;4953579;28;20525;-71
2023/01/10 10:05:21;;;;;;;6.70;4.53;;;7.80;99.90;;;;;;4971127;28;20512;-72
2023/01/10 10:08:01;;;;;;;6.13;4.87;;;7.80;99.90;;;;;;4971371;28;20420;-71
2023/01/10 10:10:38;;;;;;;9.37;5.30;;;7.90;99.90;;;;;;4971018;28;21030;-71
2023/01/10 10:13:04;;;;;;;5.93;4.73;;;7.80;99.90;;;;;;4971046;28;20832;-71
2023/01/10 10:15:51;;;;;;;7.60;5.20;;;7.90;99.90;;;;;;4970499;28;20420;-71
2023/01/10 10:18:26;;;;;;;5.63;5.03;;;8.00;99.90;;;;;;4970996;28;20223;-70
2023/01/10 10:21:32;;;;;;;11.13;5.50;;;8.10;99.90;;;;;;4969095;28;20904;-70
2023/01/10 10:24:13;;;;;;;8.50;5.73;;;8.00;99.90;;;;;;4885378;29;20419;-70
2023/01/10 10:26:49;;;;;;;6.57;4.47;;;8.10;99.90;;;;;;4965368;28;20427;-70
2023/01/10 10:29:17;;;;;;;7.43;4.40;;;8.00;99.90;;;;;;4970475;28;20432;-70
2023/01/10 10:32:08;;;;;;;11.83;6.60;;;7.90;99.90;;;;;;4973055;28;20451;-71
2023/01/10 10:34:46;;;;;;;5.63;4.40;;;7.70;99.90;;;;;;4971295;28;20414;-71
2023/01/10 10:37:32;;;;;;;11.17;5.67;;;7.70;99.90;;;;;;4971247;28;20409;-71
2023/01/10 10:40:10;;;;;;;6.13;4.83;;;7.80;99.90;;;;;;4964841;28;20645;-71
2023/01/10 10:42:40;;;;;;;8.10;5.87;;;8.00;99.90;;;;;;4971348;28;20498;-71
2023/01/10 10:45:18;;;;;;;7.33;5.37;;;8.10;99.90;;;;;;4971362;28;20403;-71
2023/01/10 10:47:49;;;;;;;18.97;5.47;;;8.00;99.90;;;;;;4970657;28;20452;-71
2023/01/10 10:50:27;;;;;;;9.27;3.90;;;8.10;99.90;;;;;;4971202;28;20417;-71
2023/01/10 10:52:53;;;;;;;6.67;4.10;;;8.10;99.90;;;;;;4949518;28;20445;-70
2023/01/10 10:55:28;;;;;;;9.83;4.30;;;8.10;99.90;;;;;;4971078;28;20411;-71
2023/01/10 10:57:54;;;;;;;8.80;4.27;;;7.90;99.90;;;;;;4973880;28;20548;-72
2023/01/10 11:00:21;;;;;;;13.70;4.73;;;7.90;99.90;;;;;;4974303;28;20436;-72
2023/01/10 11:02:54;;;;;;;7.27;3.70;;;8.00;99.90;;;;;;4967869;28;20416;-71
2023/01/10 11:05:28;;;;;;;5.43;4.20;;;7.90;99.90;;;;;;4968349;28;20730;-71
2023/01/10 11:07:58;;;;;;;6.50;3.07;;;7.90;99.90;;;;;;4967801;28;20792;-71
2023/01/10 11:10:35;;;;;;;11.20;4.33;;;8.20;99.90;;;;;;4973852;28;20434;-70
2023/01/10 11:13:32;;;;;;;9.93;4.10;;;8.40;99.90;;;;;;4968302;28;20496;-71
2023/01/10 11:15:59;;;;;;;9.03;4.10;;;8.70;99.90;;;;;;4943797;28;20489;-71
2023/01/10 11:18:27;;;;;;;4.37;3.60;;;8.80;99.90;;;;;;4973822;28;20471;-71
2023/01/10 11:21:16;;;;;;;4.03;3.70;;;8.90;99.90;;;;;;4973987;28;20488;-70
2023/01/10 11:23:55;;;;;;;10.70;2.90;;;8.90;99.90;;;;;;4974495;28;20493;-71
2023/01/10 11:26:38;;;;;;;6.53;4.50;;;8.80;99.90;;;;;;4971136;28;20412;-71
2023/01/10 11:29:06;;;;;;;3.53;3.23;;;9.00;99.90;;;;;;4974386;28;20787;-71
2023/01/10 11:31:33;;;;;;;7.67;3.97;;;8.80;99.90;;;;;;4974857;28;20430;-71
2023/01/10 11:34:02;;;;;;;5.27;3.33;;;8.60;99.90;;;;;;4975662;28;20532;-72
2023/01/10 11:36:42;;;;;;;5.70;3.30;;;8.60;99.90;;;;;;4974229;28;20420;-73
2023/01/10 11:39:15;;;;;;;11.30;4.50;;;8.60;99.90;;;;;;4961768;28;21001;-71
2023/01/10 11:41:41;;;;;;;5.10;3.27;;;8.40;99.90;;;;;;4973917;28;20428;-71
2023/01/10 11:44:28;;;;;;;6.40;3.33;;;8.40;99.90;;;;;;4974010;28;20409;-71
2023/01/10 11:47:00;;;;;;;8.40;3.50;;;8.50;99.90;;;;;;4967135;28;20171;-71
2023/01/10 11:49:38;;;;;;;4.80;2.83;;;8.30;99.90;;;;;;4973501;28;20996;-72
2023/01/10 11:52:31;;;;;;;7.17;5.53;;;8.50;99.90;;;;;;4973627;28;20949;-70
2023/01/10 11:54:59;;;;;;;9.50;3.77;;;8.70;99.90;;;;;;4972458;28;20529;-70
2023/01/10 11:57:28;;;;;;;5.80;3.67;;;8.60;99.90;;;;;;4973275;28;20471;-71
2023/01/10 11:59:59;;;;;;;7.80;3.70;;;8.50;99.90;;;;;;4973787;28;20414;-70
2023/01/10 12:02:32;;;;;;;10.80;4.37;;;8.40;99.90;;;;;;4966767;28;20916;-70
2023/01/10 12:05:01;;;;;;;4.30;3.20;;;8.60;99.90;;;;;;4973451;28;20409;-71
2023/01/10 12:07:27;;;;;;;10.03;3.17;;;8.80;99.90;;;;;;4973044;28;21145;-72
2023/01/10 12:10:00;;;;;;;8.67;3.17;;;8.80;99.90;;;;;;4973656;28;20431;-67
2023/01/10 12:12:32;;;;;;;10.23;4.20;;;8.90;99.90;;;;;;4973985;28;20177;-72
2023/01/10 12:15:00;;;;;;;5.90;3.33;;;9.00;99.90;;;;;;4973411;28;20411;-72
2023/01/10 12:17:32;;;;;;;12.07;4.10;;;8.80;99.90;;;;;;4972898;28;20419;-71
2023/01/10 12:20:00;;;;;;;9.33;3.57;;;8.90;99.90;;;;;;4972712;28;20929;-70
2023/01/10 12:22:30;;;;;;;6.03;3.33;;;8.80;99.90;;;;;;4972752;28;20466;-71
2023/01/10 12:24:58;;;;;;;6.67;3.67;;;8.70;99.90;;;;;;4973119;28;20492;-71
2023/01/10 12:27:26;;;;;;;6.70;4.20;;;8.50;99.90;;;;;;4973107;28;20432;-72
2023/01/10 12:30:15;;;;;;;9.90;3.97;;;8.50;99.90;;;;;;4973458;28;20416;-72
2023/01/10 12:32:50;;;;;;;11.80;3.70;;;8.60;99.90;;;;;;4975449;28;20526;-72
2023/01/10 12:35:36;;;;;;;6.20;3.30;;;8.70;99.90;;;;;;4972713;28;20426;-71
2023/01/10 12:38:23;;;;;;;6.57;3.20;;;8.80;99.90;;;;;;4954363;28;21028;-72
2023/01/10 12:40:53;;;;;;;10.97;4.30;;;8.70;99.90;;;;;;4972446;28;20756;-71
2023/01/10 12:46:48;;;;;;;3.60;3.10;;;8.50;99.90;;;;;;4964998;28;20438;-70
2023/01/10 12:49:27;;;;;;;6.23;3.10;;;8.60;99.90;;;;;;4937527;28;20436;-70
2023/01/10 12:51:58;;;;;;;14.30;4.10;;;8.50;99.90;;;;;;4958722;28;20460;-73
2023/01/10 12:54:27;;;;;;;6.40;2.33;;;8.70;99.90;;;;;;4964082;28;20533;-71
2023/01/10 12:56:53;;;;;;;4.57;2.60;;;8.60;99.90;;;;;;4966850;28;20527;-66
2023/01/10 12:59:27;;;;;;;4.33;2.70;;;8.70;99.90;;;;;;4972278;28;20871;-75
2023/01/10 13:02:00;;;;;;;7.73;3.30;;;8.80;99.90;;;;;;4971206;28;20453;-71
2023/01/10 13:04:27;;;;;;;4.43;2.37;;;8.70;99.90;;;;;;4960282;28;20419;-68
2023/01/10 13:06:53;;;;;;;9.47;2.70;;;8.80;99.90;;;;;;4972784;28;20527;-70
2023/01/10 13:09:23;;;;;;;7.03;3.03;;;8.80;99.90;;;;;;4972332;28;20935;-72
2023/01/10 13:12:30;;;;;;;8.47;2.70;;;8.90;99.90;;;;;;4966153;28;20495;-74
2023/01/10 13:15:23;;;;;;;8.40;2.90;;;9.00;99.90;;;;;;4966425;28;20422;-68
2023/01/10 13:17:59;;;;;;;11.83;3.50;;;8.90;99.90;;;;;;4927051;28;20471;-69
2023/01/10 13:20:36;;;;;;;7.73;3.00;;;8.90;99.90;;;;;;4963928;28;20454;-71